This is the latest recevied weather packets stored in our database for station/object K4HOG. If no packets are shown the sender has not sent any weather packets the latest 10 day(s).
| Time | Temp. | Humidity | Pressure | Rain* | Wind** | Luminosity | Snow |
|---|---|---|---|---|---|---|---|
| 1777484680 | 31.11° C | 49% | 1015.1 hPa | 0 mm | - | 965 W/m² | - |
| 1777484376 | 30.56° C | 50% | 1015 hPa | 0 mm | - | 974 W/m² | - |
| 1777484072 | 31.67° C | 48% | 1015.2 hPa | 0 mm | - | 245 W/m² | - |
| 1777483769 | 31.67° C | 49% | 1015.3 hPa | 0 mm | - | 1002 W/m² | - |
| 1777483466 | 31.11° C | 49% | 1015.3 hPa | 0 mm | - | 338 W/m² | - |
| 1777483160 | 31.11° C | 50% | 1015.3 hPa | 0 mm | - | 809 W/m² | - |
| 1777482858 | 31.67° C | 50% | 1015.4 hPa | 0 mm | - | 752 W/m² | - |
| 1777482553 | 31.67° C | 49% | 1015.5 hPa | 0 mm | - | 953 W/m² | - |
| 1777482251 | 30.56° C | 53% | 1015.6 hPa | 0 mm | - | 962 W/m² | - |
| 1777481948 | 30° C | 52% | 1015.7 hPa | 0 mm | - | 969 W/m² | - |
| 1777481646 | 29.44° C | 55% | 1015.8 hPa | 0 mm | - | 526 W/m² | - |
| 1777481342 | 30° C | 55% | 1016 hPa | 0 mm | - | 301 W/m² | - |
| 1777481039 | 30° C | 56% | 1015.9 hPa | 0 mm | - | 377 W/m² | - |
| 1777480735 | 30° C | 53% | 1016.1 hPa | 0 mm | - | 724 W/m² | - |
| 1777480432 | 30° C | 54% | 1016.3 hPa | 0 mm | - | 781 W/m² | - |
| 1777480128 | 30° C | 53% | 1016.4 hPa | 0 mm | - | 672 W/m² | - |
| 1777479825 | 30° C | 52% | 1016.3 hPa | 0 mm | - | 906 W/m² | - |
| 1777479522 | 29.44° C | 54% | 1016.5 hPa | 0 mm | - | 870 W/m² | - |
| 1777479219 | 29.44° C | 55% | 1016.5 hPa | 0 mm | - | 842 W/m² | - |
| 1777478916 | 28.89° C | 57% | 1016.5 hPa | 0 mm | - | 815 W/m² | - |
| 1777478612 | 28.89° C | 55% | 1016.7 hPa | 0 mm | - | 799 W/m² | - |
| 1777478309 | 28.89° C | 57% | 1016.7 hPa | 0 mm | - | 793 W/m² | - |
| 1777478006 | 28.33° C | 58% | 1016.9 hPa | 0 mm | - | 797 W/m² | - |
| 1777477701 | 28.33° C | 59% | 1016.8 hPa | 0 mm | - | 773 W/m² | - |
| 1777477398 | 28.33° C | 61% | 1016.6 hPa | 0 mm | - | 725 W/m² | - |
* Rain latest hour (hover to see other rain measurements)
** Current wind speed in m/s (hover to see current wind gust speed)